Time;durP1;ratioP1;P1;durP2;ratioP2;P2;SDS_P1;SDS_P2;PMS_P1;PMS_P2;Temp;Humidity;BMP_temperature;BMP_pressure;BME280_temperature;BME280_humidity;BME280_pressure;Samples;Min_cycle;Max_cycle;Signal;HPM_P1;HPM_P2
2023/01/14 00:08:57;;;;;;;18.17;13.43;;;;;;;21.20;54.00;100656.31;20933397;28;20096;-87
2023/01/14 00:18:59;;;;;;;19.25;14.13;;;;;;;21.15;54.46;100676.88;20939457;28;20503;-87
2023/01/14 00:28:59;;;;;;;17.45;12.52;;;;;;;21.15;54.19;100682.16;20941716;28;20041;-87
2023/01/14 00:39:01;;;;;;;17.42;12.27;;;;;;;21.10;54.33;100683.34;20942084;28;20052;-89
2023/01/14 00:49:04;;;;;;;16.10;11.93;;;;;;;21.09;54.69;100668.47;20953376;28;20047;-88
2023/01/14 00:59:15;;;;;;;15.00;11.07;;;;;;;21.08;54.50;100664.16;20963931;28;20048;-87
2023/01/14 01:09:15;;;;;;;15.70;11.38;;;;;;;21.04;54.21;100667.13;20939790;28;20052;-87
2023/01/14 01:19:16;;;;;;;14.95;11.30;;;;;;;21.02;54.35;100661.13;20940541;28;20047;-87
2023/01/14 01:29:16;;;;;;;14.27;10.77;;;;;;;21.00;54.31;100666.50;20940368;28;20899;-86
2023/01/14 01:39:17;;;;;;;14.30;10.63;;;;;;;21.00;54.61;100666.50;20945479;28;20056;-88
2023/01/14 01:49:27;;;;;;;14.07;10.38;;;;;;;20.98;54.32;100664.94;20939873;28;20094;-87
2023/01/14 01:59:36;;;;;;;12.95;10.15;;;;;;;20.93;54.51;100681.06;20924837;28;20205;-86
2023/01/14 02:09:36;;;;;;;15.07;10.57;;;;;;;20.95;54.66;100689.69;20937314;28;20102;-88
2023/01/14 02:19:39;;;;;;;13.75;9.73;;;;;;;20.93;54.57;100687.19;20932693;28;20131;-88
2023/01/14 02:29:59;;;;;;;;;;;;;;;20.91;54.76;100683.81;20934298;28;20649;-86
2023/01/14 02:40:08;;;;;;;11.05;8.95;;;;;;;20.91;54.60;100688.22;20926886;28;19929;-86
2023/01/14 02:50:10;;;;;;;12.32;9.55;;;;;;;20.89;54.66;100690.97;20935259;28;20037;-85
2023/01/14 03:00:31;;;;;;;10.75;8.77;;;;;;;20.89;54.60;100700.66;20927485;28;20544;-86
2023/01/14 03:11:08;;;;;;;12.07;8.88;;;;;;;20.86;54.67;100712.25;20929542;28;20102;-85
2023/01/14 03:21:15;;;;;;;10.88;8.27;;;;;;;20.84;54.69;100723.84;20922722;28;20084;-85
2023/01/14 03:31:23;;;;;;;10.60;8.80;;;;;;;20.84;54.72;100716.78;20924834;28;20113;-86
2023/01/14 03:51:58;;;;;;;11.10;8.48;;;;;;;20.82;54.61;100746.78;20936974;28;20139;-85
2023/01/14 04:02:00;;;;;;;10.20;7.88;;;;;;;20.80;54.56;100752.16;20945293;28;20399;-86
2023/01/14 04:12:01;;;;;;;12.40;8.70;;;;;;;20.78;54.95;100748.78;20945299;28;20041;-86
2023/01/14 04:22:02;;;;;;;11.68;8.45;;;;;;;20.78;54.51;100747.00;20938898;28;20070;-87
2023/01/14 04:32:09;;;;;;;10.48;7.78;;;;;;;20.77;54.78;100753.19;20932447;28;20049;-85
2023/01/14 04:42:28;;;;;;;10.93;7.95;;;;;;;20.76;54.66;100758.56;20943316;28;20093;-85
2023/01/14 04:52:28;;;;;;;9.77;7.55;;;;;;;20.76;54.52;100763.84;20938315;28;20068;-85
2023/01/14 05:02:30;;;;;;;9.50;7.45;;;;;;;20.75;54.66;100773.53;20935902;28;20146;-86
2023/01/14 05:12:31;;;;;;;9.68;7.60;;;;;;;20.73;54.61;100780.69;20937283;28;20488;-86
2023/01/14 05:22:31;;;;;;;12.65;8.55;;;;;;;20.77;54.59;100778.69;20913929;28;20047;-87
2023/01/14 05:32:32;;;;;;;15.00;8.30;;;;;;;20.82;55.08;100795.00;20914972;28;20055;-86
2023/01/14 05:52:51;;;;;;;11.52;8.45;;;;;;;20.94;55.18;100809.09;20936487;28;20052;-86
2023/01/14 06:13:14;;;;;;;12.65;9.13;;;;;;;21.04;54.86;100815.38;20940896;28;20115;-88
2023/01/14 06:23:15;;;;;;;12.38;9.02;;;;;;;21.11;54.35;100811.38;20924113;28;20388;-89
2023/01/14 06:33:16;;;;;;;12.43;9.02;;;;;;;21.19;55.14;100829.28;20921396;28;20041;-86
2023/01/14 06:43:16;;;;;;;13.25;8.88;;;;;;;21.26;55.09;100829.69;20916455;28;21669;-87
2023/01/14 06:53:21;;;;;;;11.75;8.85;;;;;;;21.32;54.96;100839.78;20919845;28;20055;-87
2023/01/14 07:03:22;;;;;;;12.27;8.57;;;;;;;21.38;55.21;100844.63;20924503;28;20032;-84
2023/01/14 07:13:22;;;;;;;12.02;8.50;;;;;;;21.49;55.32;100858.84;20907391;28;20614;-84
2023/01/14 07:23:24;;;;;;;13.55;8.75;;;;;;;21.56;55.07;100854.81;20917922;28;20048;-86
2023/01/14 07:33:24;;;;;;;12.00;9.20;;;;;;;21.61;54.89;100878.25;20919115;28;20052;-86
2023/01/14 07:43:25;;;;;;;10.73;8.48;;;;;;;21.66;55.09;100878.75;20919553;28;20044;-84
2023/01/14 07:53:25;;;;;;;13.38;9.40;;;;;;;21.74;55.17;100890.41;20902581;28;20041;-85
2023/01/14 08:03:26;;;;;;;12.68;8.82;;;;;;;21.80;55.10;100898.81;20909227;28;20126;-83
2023/01/14 08:13:27;;;;;;;14.95;9.13;;;;;;;21.86;55.77;100891.34;20895349;28;20047;-86
2023/01/14 08:23:31;;;;;;;12.50;9.55;;;;;;;21.95;57.07;100899.50;20892855;28;20101;-95
2023/01/14 08:33:32;;;;;;;16.38;9.68;;;;;;;22.02;56.69;100906.88;20941902;28;20051;-93
2023/01/14 08:43:34;;;;;;;26.98;11.30;;;;;;;21.84;51.26;100903.78;20929897;27;20147;-93
2023/01/14 08:53:36;;;;;;;18.90;9.73;;;;;;;21.95;52.92;100921.47;20948398;28;20040;-92
2023/01/14 09:03:38;;;;;;;12.47;8.67;;;;;;;21.99;53.60;100930.00;20955111;28;20041;-89
2023/01/14 09:23:58;;;;;;;13.40;7.70;;;;;;;22.11;54.33;100930.91;20946984;28;20037;-90
2023/01/14 09:33:58;;;;;;;11.50;7.03;;;;;;;22.14;54.52;100931.53;20933636;27;20075;-89
2023/01/14 09:44:03;;;;;;;15.00;7.70;;;;;;;22.17;52.52;100927.81;20929421;28;20040;-86
2023/01/14 09:54:19;;;;;;;17.35;8.00;;;;;;;22.22;52.98;100912.47;20958097;28;20530;-90
2023/01/14 10:04:57;;;;;;;13.45;7.90;;;;;;;22.25;53.37;100903.50;20944491;28;20055;-85
2023/01/14 10:15:18;;;;;;;13.38;6.95;;;;;;;22.29;53.19;100889.97;20926908;28;20087;-86
2023/01/14 10:25:22;;;;;;;14.03;7.27;;;;;;;22.29;53.37;100887.34;20937616;28;20079;-87
2023/01/14 10:35:33;;;;;;;10.25;7.32;;;;;;;22.33;53.17;100886.16;20933342;28;20098;-86
2023/01/14 10:45:34;;;;;;;11.88;6.93;;;;;;;22.31;52.91;100885.41;20934907;28;20075;-86
2023/01/14 10:55:35;;;;;;;8.60;6.93;;;;;;;22.30;52.87;100882.88;20934805;28;20056;-85
2023/01/14 11:05:39;;;;;;;8.70;6.30;;;;;;;22.36;52.96;100879.78;20929126;28;20033;-87
2023/01/14 11:15:45;;;;;;;11.15;5.97;;;;;;;22.45;52.25;100865.09;20902871;28;20037;-93
2023/01/14 11:25:49;;;;;;;12.18;3.97;;;;;;;21.86;41.45;100835.97;20896151;28;20036;-84
2023/01/14 11:35:54;;;;;;;9.43;3.38;;;;;;;22.20;46.02;100836.13;20902062;28;20040;-85
2023/01/14 11:46:12;;;;;;;6.93;3.30;;;;;;;22.40;47.97;100839.06;20908807;28;20432;-87
2023/01/14 11:56:22;;;;;;;8.73;3.30;;;;;;;22.60;48.86;100829.63;20922376;28;20041;-87
2023/01/14 12:06:26;;;;;;;6.57;3.88;;;;;;;22.80;49.75;100838.66;20957518;28;20093;-84
2023/01/14 12:16:53;;;;;;;13.38;5.43;;;;;;;22.98;52.18;100822.34;20923822;28;20048;-85
2023/01/14 12:26:57;;;;;;;15.07;5.40;;;;;;;23.15;52.55;100807.81;20928366;28;20036;-85
2023/01/14 12:37:10;;;;;;;14.18;4.80;;;;;;;23.28;52.07;100802.44;20919730;28;20045;-88
2023/01/14 12:47:12;;;;;;;13.63;5.00;;;;;;;23.36;51.43;100801.81;20932854;27;20044;-87
2023/01/14 12:57:20;;;;;;;10.73;4.68;;;;;;;23.42;51.17;100790.75;20943253;28;20411;-88
2023/01/14 13:07:29;;;;;;;11.32;5.35;;;;;;;23.46;50.98;100771.03;20936950;28;20048;-89
2023/01/14 13:17:39;;;;;;;8.20;4.97;;;;;;;23.48;50.81;100783.16;20931847;28;20072;-87
2023/01/14 13:27:41;;;;;;;7.38;4.70;;;;;;;23.46;50.67;100797.44;20927752;28;20041;-88
2023/01/14 13:37:43;;;;;;;8.13;4.57;;;;;;;23.38;50.65;100798.06;20943431;28;20045;-87
2023/01/14 13:47:49;;;;;;;7.03;4.60;;;;;;;23.33;50.43;100790.50;20946090;28;20147;-88
2023/01/14 13:57:55;;;;;;;12.40;4.93;;;;;;;23.28;50.50;100794.50;20945079;28;20507;-86
2023/01/14 14:07:59;;;;;;;6.72;4.57;;;;;;;23.20;50.47;100791.63;20939597;28;20592;-85
2023/01/14 14:18:02;;;;;;;8.70;4.90;;;;;;;23.13;50.37;100812.38;20941963;28;20047;-88
2023/01/14 14:28:12;;;;;;;7.68;4.90;;;;;;;23.06;50.79;100814.66;20935701;28;20459;-86
2023/01/14 14:38:16;;;;;;;10.70;5.15;;;;;;;22.98;50.89;100822.34;20929219;28;20045;-89
2023/01/14 14:48:25;;;;;;;5.80;3.97;;;;;;;22.95;50.83;100827.84;20926327;28;20056;-86
2023/01/14 14:58:26;;;;;;;7.05;4.43;;;;;;;22.91;51.32;100815.88;20944754;28;20041;-91
2023/01/14 15:08:33;;;;;;;8.60;4.43;;;;;;;22.85;51.35;100815.38;20919328;28;20058;-90
2023/01/14 15:18:36;;;;;;;6.78;4.15;;;;;;;22.81;51.50;100818.38;20917992;28;20049;-88
2023/01/14 15:28:38;;;;;;;6.20;3.75;;;;;;;22.76;51.38;100837.22;20887559;28;21578;-88
2023/01/14 15:38:45;;;;;;;7.97;3.88;;;;;;;22.69;51.40;100834.22;20914148;28;20170;-85
2023/01/14 15:48:55;;;;;;;5.45;3.90;;;;;;;22.64;51.13;100849.56;20915204;28;20044;-88
2023/01/14 15:58:55;;;;;;;5.72;3.20;;;;;;;22.59;50.87;100838.50;20915413;28;20040;-88
2023/01/14 16:08:57;;;;;;;6.70;3.50;;;;;;;22.53;50.87;100852.16;20936561;28;20048;-87
2023/01/14 16:18:57;;;;;;;5.95;3.28;;;;;;;22.50;51.00;100860.34;20932136;28;20403;-87
2023/01/14 16:28:58;;;;;;;5.90;3.60;;;;;;;22.47;50.82;100858.78;20921366;28;20120;-89
2023/01/14 16:38:58;;;;;;;4.50;3.30;;;;;;;22.41;50.78;100846.03;20919575;28;20053;-89
2023/01/14 16:48:59;;;;;;;5.72;3.20;;;;;;;22.38;50.87;100838.34;20912537;28;20044;-88
2023/01/14 16:58:59;;;;;;;4.60;3.30;;;;;;;22.38;50.94;100828.63;20914272;28;20049;-86
2023/01/14 17:09:00;;;;;;;6.00;3.10;;;;;;;22.41;50.75;100839.91;20923510;28;20289;-86
2023/01/14 17:19:00;;;;;;;7.25;3.28;;;;;;;22.45;50.55;100836.06;20924647;28;20036;-86
2023/01/14 17:29:01;;;;;;;6.40;2.72;;;;;;;22.48;50.33;100831.41;20930013;28;20037;-85
2023/01/14 17:39:02;;;;;;;5.72;3.05;;;;;;;22.51;50.32;100835.63;20933879;28;20752;-85
2023/01/14 17:49:03;;;;;;;3.70;2.70;;;;;;;22.54;50.42;100824.81;20915498;28;20127;-89
2023/01/14 17:59:04;;;;;;;7.57;3.67;;;;;;;22.52;50.16;100837.28;20921438;28;20116;-88
2023/01/14 18:09:04;;;;;;;4.73;3.07;;;;;;;22.51;50.36;100844.38;20937919;28;20047;-87
2023/01/14 18:19:05;;;;;;;4.60;3.17;;;;;;;22.50;50.11;100852.41;20932780;28;20286;-85
2023/01/14 18:29:05;;;;;;;4.38;3.47;;;;;;;22.47;50.42;100842.06;20949468;28;20063;-89
2023/01/14 18:39:08;;;;;;;5.00;3.60;;;;;;;22.45;50.49;100852.75;20948849;28;20078;-86
2023/01/14 18:49:08;;;;;;;;;;;;;;;22.42;50.46;100836.31;20941517;28;20036;-85
2023/01/14 18:59:09;;;;;;;5.60;3.80;;;;;;;22.40;50.55;100839.06;20928509;28;19931;-87
2023/01/14 19:09:10;;;;;;;12.25;3.33;;;;;;;22.42;50.47;100833.69;20936330;28;20029;-87
2023/01/14 19:19:18;;;;;;;4.80;3.55;;;;;;;22.35;50.60;100825.34;20938863;28;20048;-86
2023/01/14 19:29:18;;;;;;;9.20;4.82;;;;;;;22.34;51.13;100826.31;20912494;28;20036;-87
2023/01/14 19:39:20;;;;;;;9.27;5.03;;;;;;;22.28;51.00;100822.34;20916422;28;20059;-86
2023/01/14 19:49:21;;;;;;;9.67;5.60;;;;;;;22.26;51.76;100847.97;20907489;28;20056;-88
2023/01/14 19:59:23;;;;;;;13.73;7.68;;;;;;;22.21;50.11;100842.22;20930924;28;20055;-91
2023/01/14 20:09:23;;;;;;;12.37;7.27;;;;;;;22.13;50.17;100832.25;20940432;28;20695;-88
2023/01/14 20:19:24;;;;;;;16.75;7.55;;;;;;;22.08;51.04;100818.53;20927017;28;20045;-87
2023/01/14 20:29:25;;;;;;;12.27;6.90;;;;;;;22.01;50.87;100807.63;20935563;28;20048;-87
2023/01/14 20:39:25;;;;;;;13.57;8.05;;;;;;;22.00;50.74;100805.09;20938378;28;20052;-88
2023/01/14 20:49:27;;;;;;;11.50;7.13;;;;;;;21.96;50.78;100806.28;20946478;28;20083;-86
2023/01/14 20:59:29;;;;;;;12.38;7.93;;;;;;;21.93;51.25;100799.44;20931694;28;20044;-85
2023/01/14 21:09:31;;;;;;;10.70;7.10;;;;;;;21.91;51.33;100801.38;20914714;28;20506;-86
2023/01/14 21:29:51;;;;;;;10.07;7.05;;;;;;;21.84;51.64;100790.41;20943291;28;20041;-87
2023/01/14 21:39:51;;;;;;;11.88;7.20;;;;;;;21.82;51.36;100786.22;20947373;28;20556;-87
2023/01/14 21:49:53;;;;;;;12.30;6.80;;;;;;;21.79;51.70;100789.06;20950337;28;20067;-86
2023/01/14 21:59:53;;;;;;;8.93;6.28;;;;;;;;;;20956137;28;20064;-86
2023/01/14 22:09:53;;;;;;;9.60;6.65;;;;;;;21.72;52.27;100772.88;20961657;28;20048;-85
2023/01/14 22:19:54;;;;;;;10.43;6.47;;;;;;;21.71;51.61;100758.00;20949802;28;20044;-86
2023/01/14 22:29:54;;;;;;;8.35;6.03;;;;;;;21.68;51.96;100742.41;20959057;28;20100;-85
2023/01/14 22:39:55;;;;;;;8.88;6.35;;;;;;;21.65;52.41;100730.31;20954074;28;20036;-86
2023/01/14 22:49:56;;;;;;;10.27;6.22;;;;;;;21.62;52.30;100721.78;20947809;28;20028;-86
2023/01/14 22:59:58;;;;;;;8.38;5.78;;;;;;;21.59;52.45;100723.72;20954270;28;20037;-87
2023/01/14 23:09:59;;;;;;;9.07;6.18;;;;;;;21.58;52.22;100716.75;20943209;28;20168;-88
2023/01/14 23:20:04;;;;;;;9.15;5.78;;;;;;;21.55;52.52;100705.56;20937219;28;20072;-86
2023/01/14 23:30:05;;;;;;;9.50;6.22;;;;;;;21.52;52.67;100696.09;20941430;28;20036;-86
2023/01/14 23:40:08;;;;;;;8.60;5.97;;;;;;;21.50;52.80;100687.47;20938111;28;20124;-88
2023/01/14 23:50:16;;;;;;;10.55;6.35;;;;;;;21.48;53.02;100672.72;20956886;28;20048;-86
